KFGX

Details ICAO KFGX
Name FLEMING MASON
Region United States
Timezone America/New_York (UTC-4.0)
Plans Departing 1
Arriving 1
Stats Elevation 913 ft / 278 m (AMSL)
Location 38.541817° -83.743375°
Runways 1
Magnetic Variation 6.347° W
Sunrise 2018-05-24 10:18:02 UTC / 2018-05-24 06:18:02 Local
Sunset 2018-05-25 00:48:30 UTC / 2018-05-24 20:48:30 Local
Advertisement - Login to hide

Runways

ID Width Length Bearing (true) Bearing (mag) Surface Threshold Offset Overrun Length
07 75 ft / 23 m 4,993 ft / 1,522 m 67.11° 73.46° Asphalt 299 ft / 91 m 0 ft / 0 m
25 75 ft / 23 m 4,993 ft / 1,522 m 247.12° 253.47° Asphalt 0 ft / 0 m 0 ft / 0 m

Map

Weather


0- 5 10 15 20 25 30 35+ Temperature / ° C

Clouds and Precipitation
Forecast for 2018-05-24 12:00 UTC. Updated an hour ago

Ground ~20,000 ft ~40,000 ft Winds

METAR

KFGX 241015Z AUTO 00000KT 4SM BR CLR 13/13 A3020 RMK AO2 T01340134

TAF

Not found

Frequencies

Recorded 118.12 MHz AWOS 3
Unicom 123.00 MHz CTAF/UNICOM
Warning: Do not use this data for real-world aviation or navigation. No guarantee of current accuracy is given.